createdAt,value
2023-11-30T00:00:20.427Z,6.07
2023-11-30T00:02:47.107Z,6.05
2023-11-30T00:05:13.936Z,5.80
2023-11-30T00:07:40.554Z,7.60
2023-11-30T00:10:07.658Z,7.10
2023-11-30T00:12:34.136Z,6.45
2023-11-30T00:15:00.669Z,7.57
2023-11-30T00:17:27.310Z,6.80
2023-11-30T00:19:53.805Z,6.10
2023-11-30T00:22:20.307Z,6.95
2023-11-30T00:24:46.778Z,6.97
2023-11-30T00:27:13.332Z,6.55
2023-11-30T00:29:39.925Z,6.65
2023-11-30T00:32:06.818Z,6.28
2023-11-30T00:34:33.321Z,6.78
2023-11-30T00:36:59.827Z,6.68
2023-11-30T00:39:26.454Z,6.68
2023-11-30T00:41:53.164Z,6.03
2023-11-30T00:44:22.310Z,6.07
2023-11-30T00:46:49.115Z,6.97
2023-11-30T00:49:15.791Z,6.05
2023-11-30T00:51:42.286Z,6.75
2023-11-30T00:54:08.939Z,6.47
2023-11-30T00:56:35.538Z,7.60
2023-11-30T00:59:02.144Z,6.40
2023-11-30T01:01:28.712Z,6.57
2023-11-30T01:03:55.257Z,6.38
2023-11-30T01:06:21.805Z,5.88
2023-11-30T01:08:48.463Z,5.80
2023-11-30T01:11:15.064Z,6.35
2023-11-30T01:13:41.647Z,6.82
2023-11-30T01:16:08.706Z,5.95
2023-11-30T01:18:35.342Z,6.72
2023-11-30T01:21:02.034Z,6.28
2023-11-30T01:23:28.591Z,7.22
2023-11-30T01:25:55.212Z,6.38
2023-11-30T01:28:21.736Z,6.70
2023-11-30T01:30:48.229Z,6.93
2023-11-30T01:33:14.839Z,8.00
2023-11-30T01:35:41.537Z,7.40
2023-11-30T01:38:08.113Z,7.10
2023-11-30T01:40:34.768Z,7.22
2023-11-30T01:43:01.334Z,7.65
2023-11-30T01:45:27.841Z,8.32
2023-11-30T01:47:54.544Z,7.35
2023-11-30T01:50:21.579Z,7.10
2023-11-30T01:52:48.278Z,6.65
2023-11-30T01:55:15.042Z,7.18
2023-11-30T01:57:42.399Z,6.97
2023-11-30T02:00:10.934Z,7.90
2023-11-30T02:02:37.645Z,6.88
2023-11-30T02:05:04.936Z,7.55
2023-11-30T02:07:31.460Z,7.70
2023-11-30T02:09:58.010Z,8.20
2023-11-30T02:12:24.554Z,7.32
2023-11-30T02:14:51.073Z,7.95
2023-11-30T02:17:17.596Z,7.90
2023-11-30T02:19:44.250Z,8.02
2023-11-30T02:22:10.780Z,8.10
2023-11-30T02:24:37.330Z,9.13
2023-11-30T02:27:04.128Z,8.13
2023-11-30T02:29:30.657Z,8.10
2023-11-30T02:31:57.192Z,8.73
2023-11-30T02:34:23.714Z,8.15
2023-11-30T02:36:50.219Z,8.10
2023-11-30T02:39:16.861Z,8.82
2023-11-30T02:41:43.389Z,8.23
2023-11-30T02:44:09.989Z,8.05
2023-11-30T02:46:36.486Z,8.80
2023-11-30T02:49:03.028Z,8.95
2023-11-30T02:51:29.796Z,8.52
2023-11-30T02:53:56.513Z,8.23
2023-11-30T02:56:23.088Z,8.88
2023-11-30T02:58:49.618Z,8.38
2023-11-30T03:01:16.318Z,9.23
2023-11-30T03:03:43.133Z,8.82
2023-11-30T03:06:13.716Z,9.00
2023-11-30T03:08:40.220Z,8.98
2023-11-30T03:11:06.903Z,9.10
2023-11-30T03:13:33.432Z,9.43
2023-11-30T03:16:00.070Z,9.85
2023-11-30T03:18:26.774Z,10.20
2023-11-30T03:20:53.533Z,10.30
2023-11-30T03:23:20.108Z,10.98
2023-11-30T03:25:47.129Z,9.27
2023-11-30T03:28:13.889Z,10.00
2023-11-30T03:30:40.541Z,10.48
2023-11-30T03:33:07.247Z,9.93
2023-11-30T03:35:33.893Z,9.23
2023-11-30T03:38:00.494Z,10.70
2023-11-30T03:40:27.090Z,10.60
2023-11-30T03:42:53.580Z,9.98
2023-11-30T03:45:20.172Z,9.95
2023-11-30T03:47:46.807Z,10.73
2023-11-30T03:50:13.381Z,10.32
2023-11-30T03:52:39.983Z,9.82
2023-11-30T03:55:06.806Z,11.55
2023-11-30T03:57:33.495Z,10.93
2023-11-30T04:00:00.092Z,10.60
2023-11-30T04:02:26.812Z,10.73
2023-11-30T04:04:53.383Z,10.40
2023-11-30T04:07:20.040Z,9.95
2023-11-30T04:09:47.693Z,10.80
2023-11-30T04:12:14.260Z,9.65
2023-11-30T04:14:40.835Z,10.38
2023-11-30T04:17:08.062Z,10.55
2023-11-30T04:19:34.563Z,9.90
2023-11-30T04:22:01.122Z,10.88
2023-11-30T04:24:27.682Z,10.13
2023-11-30T04:26:54.495Z,10.52
2023-11-30T04:29:20.987Z,10.85
2023-11-30T04:31:47.582Z,10.63
2023-11-30T04:34:14.273Z,10.25
2023-11-30T04:36:40.825Z,10.65
2023-11-30T04:39:07.533Z,10.23
2023-11-30T04:41:34.092Z,9.57
2023-11-30T04:44:00.672Z,9.65
2023-11-30T04:46:27.743Z,10.05
2023-11-30T04:48:55.707Z,10.20
2023-11-30T04:51:23.054Z,10.30
2023-11-30T04:53:50.366Z,10.20
2023-11-30T04:56:17.014Z,10.00
2023-11-30T04:58:43.941Z,9.60
2023-11-30T05:01:10.588Z,9.98
2023-11-30T05:03:37.490Z,9.82
2023-11-30T05:06:04.394Z,9.13
2023-11-30T05:08:30.935Z,10.13
2023-11-30T05:10:58.643Z,9.70
2023-11-30T05:13:25.128Z,9.65
2023-11-30T05:15:51.731Z,8.88
2023-11-30T05:18:18.392Z,9.63
2023-11-30T05:20:44.913Z,9.10
2023-11-30T05:23:11.412Z,9.23
2023-11-30T05:25:37.983Z,9.43
2023-11-30T05:28:05.794Z,9.40
2023-11-30T05:30:32.335Z,10.65
2023-11-30T05:32:58.994Z,10.73
2023-11-30T05:35:25.599Z,8.65
2023-11-30T05:37:52.045Z,9.82
2023-11-30T05:40:20.305Z,10.13
2023-11-30T05:42:46.866Z,9.30
2023-11-30T05:45:13.412Z,9.77
2023-11-30T05:47:40.063Z,9.43
2023-11-30T05:50:07.217Z,8.45
2023-11-30T05:52:33.853Z,9.30
2023-11-30T05:55:00.470Z,9.32
2023-11-30T05:57:27.443Z,9.60
2023-11-30T05:59:54.072Z,9.30
2023-11-30T06:02:22.559Z,9.00
2023-11-30T06:04:53.574Z,9.00
2023-11-30T06:07:21.476Z,8.90
2023-11-30T06:09:48.489Z,9.85
2023-11-30T06:12:15.129Z,9.15
2023-11-30T06:14:41.834Z,8.57
2023-11-30T06:17:08.366Z,9.48
2023-11-30T06:19:35.041Z,9.65
2023-11-30T06:22:02.359Z,9.38
2023-11-30T06:24:30.875Z,9.52
2023-11-30T06:26:59.248Z,9.55
2023-11-30T06:29:26.197Z,9.75
2023-11-30T06:31:52.883Z,10.18
2023-11-30T06:34:19.589Z,9.30
2023-11-30T06:36:46.200Z,8.90
2023-11-30T06:39:12.799Z,9.77
2023-11-30T06:41:39.333Z,10.35
2023-11-30T06:44:05.849Z,9.90
2023-11-30T06:46:32.369Z,9.27
2023-11-30T06:48:58.873Z,9.38
2023-11-30T06:51:25.523Z,9.07
2023-11-30T06:53:52.053Z,9.40
2023-11-30T06:56:18.603Z,9.55
2023-11-30T06:58:45.261Z,9.63
2023-11-30T07:01:11.918Z,9.18
2023-11-30T07:03:42.751Z,9.05
2023-11-30T07:06:10.684Z,8.77
2023-11-30T07:08:37.407Z,9.05
2023-11-30T07:11:08.436Z,10.15
2023-11-30T07:13:35.165Z,9.55
2023-11-30T07:16:01.919Z,10.27
2023-11-30T07:18:28.680Z,9.40
2023-11-30T07:20:55.286Z,9.55
2023-11-30T07:23:21.848Z,9.18
2023-11-30T07:25:48.585Z,10.30
2023-11-30T07:28:15.206Z,10.40
2023-11-30T07:30:44.799Z,10.40
2023-11-30T07:33:11.918Z,10.15
2023-11-30T07:35:41.736Z,10.10
2023-11-30T07:38:08.936Z,9.73
2023-11-30T07:40:35.642Z,10.45
2023-11-30T07:43:03.497Z,10.18
2023-11-30T07:45:31.198Z,10.65
2023-11-30T07:47:58.695Z,10.98
2023-11-30T07:50:28.310Z,12.00
2023-11-30T07:52:55.021Z,17.80
2023-11-30T07:55:21.806Z,13.55
2023-11-30T07:57:49.745Z,12.25
2023-11-30T08:00:16.921Z,11.77
2023-11-30T08:02:44.040Z,12.38
2023-11-30T08:05:13.275Z,13.23
2023-11-30T08:07:39.892Z,11.95
2023-11-30T08:10:07.458Z,12.57
2023-11-30T08:12:34.195Z,11.75
2023-11-30T08:15:00.973Z,11.57
2023-11-30T08:17:27.791Z,13.57
2023-11-30T08:19:54.372Z,12.18
2023-11-30T08:22:20.917Z,11.68
2023-11-30T08:24:47.532Z,12.38
2023-11-30T08:27:14.142Z,12.77
2023-11-30T08:29:41.254Z,11.70
2023-11-30T08:32:07.883Z,11.18
2023-11-30T08:34:34.347Z,11.75
2023-11-30T08:37:01.212Z,12.05
2023-11-30T08:39:29.738Z,12.30
2023-11-30T08:41:56.869Z,12.35
2023-11-30T08:44:26.014Z,12.27
2023-11-30T08:46:53.839Z,11.52
2023-11-30T08:49:20.597Z,13.43
2023-11-30T08:51:47.333Z,11.85
2023-11-30T08:54:14.107Z,12.80
2023-11-30T08:56:40.725Z,11.65
2023-11-30T08:59:07.293Z,11.90
2023-11-30T09:01:34.174Z,12.75
2023-11-30T09:04:04.839Z,12.25
2023-11-30T09:06:32.001Z,13.05
2023-11-30T09:08:58.649Z,13.52
2023-11-30T09:11:25.225Z,12.23
2023-11-30T09:13:53.502Z,11.18
2023-11-30T09:16:20.253Z,12.57
2023-11-30T09:18:46.976Z,12.32
2023-11-30T09:21:13.683Z,12.75
2023-11-30T09:23:40.313Z,11.73
2023-11-30T09:26:08.064Z,13.05
2023-11-30T09:28:38.437Z,12.57
2023-11-30T09:31:07.203Z,11.30
2023-11-30T09:33:33.939Z,11.43
2023-11-30T09:36:00.600Z,11.43
2023-11-30T09:38:27.119Z,14.05
2023-11-30T09:40:53.763Z,10.90
2023-11-30T09:43:20.851Z,12.35
2023-11-30T09:45:49.485Z,11.57
2023-11-30T09:48:16.209Z,10.15
2023-11-30T09:50:43.183Z,11.05
2023-11-30T09:53:10.001Z,10.20
2023-11-30T09:55:37.635Z,9.10
2023-11-30T09:58:05.001Z,9.05
2023-11-30T10:00:31.758Z,9.45
2023-11-30T10:03:01.215Z,10.15
2023-11-30T10:05:29.872Z,10.80
2023-11-30T10:08:00.438Z,11.10
2023-11-30T10:10:27.260Z,11.70
2023-11-30T10:12:57.106Z,10.65
2023-11-30T10:15:24.103Z,11.05
2023-11-30T10:17:50.962Z,12.10
2023-11-30T10:20:19.734Z,11.45
2023-11-30T10:25:14.188Z,11.15
2023-11-30T10:27:43.364Z,11.80
2023-11-30T10:30:12.395Z,11.40
2023-11-30T10:32:40.894Z,11.63
2023-11-30T10:35:13.584Z,10.90
2023-11-30T10:37:48.962Z,11.90
2023-11-30T10:40:18.782Z,12.32
2023-11-30T10:42:49.252Z,13.38
2023-11-30T10:45:16.758Z,12.48
2023-11-30T10:47:44.001Z,12.43
2023-11-30T10:50:13.056Z,11.93
2023-11-30T10:52:40.838Z,12.70
2023-11-30T10:55:13.271Z,11.18
2023-11-30T10:57:47.485Z,12.38
2023-11-30T11:00:16.613Z,12.55
2023-11-30T11:02:45.183Z,11.80
2023-11-30T11:05:16.599Z,12.38
2023-11-30T11:07:47.637Z,10.90
2023-11-30T11:10:29.344Z,11.57
2023-11-30T11:13:00.959Z,10.07
2023-11-30T11:15:32.991Z,9.63
2023-11-30T11:18:04.665Z,10.13
2023-11-30T11:20:34.063Z,9.68
2023-11-30T11:23:11.019Z,10.32
2023-11-30T11:25:47.069Z,10.25
2023-11-30T11:28:18.049Z,10.02
2023-11-30T11:30:48.290Z,9.68
2023-11-30T11:33:17.730Z,10.10
2023-11-30T11:35:44.522Z,10.35
2023-11-30T11:38:11.759Z,10.35
2023-11-30T11:40:40.834Z,9.55
2023-11-30T11:43:07.734Z,9.82
2023-11-30T11:45:35.465Z,9.60
2023-11-30T11:48:02.664Z,10.15
2023-11-30T11:50:29.467Z,10.27
2023-11-30T11:53:00.801Z,9.45
2023-11-30T11:55:27.649Z,9.52
2023-11-30T11:57:57.100Z,10.55
2023-11-30T12:00:25.827Z,9.23
2023-11-30T12:05:23.417Z,8.43
2023-11-30T12:07:58.520Z,9.65
2023-11-30T12:10:40.443Z,9.27
2023-11-30T12:13:09.315Z,9.52
2023-11-30T12:15:35.952Z,9.63
2023-11-30T12:18:02.756Z,9.07
2023-11-30T12:20:29.386Z,9.68
2023-11-30T12:22:56.955Z,9.18
2023-11-30T12:25:23.698Z,9.52
2023-11-30T12:27:51.306Z,9.57
2023-11-30T12:30:19.962Z,8.63
2023-11-30T12:32:47.214Z,9.35
2023-11-30T12:35:14.072Z,9.35
2023-11-30T12:37:40.731Z,9.68
2023-11-30T12:40:10.077Z,9.27
2023-11-30T12:42:37.409Z,9.38
2023-11-30T12:45:05.661Z,8.95
2023-11-30T12:47:32.538Z,8.80
2023-11-30T12:49:59.247Z,8.95
2023-11-30T12:52:26.020Z,9.00
2023-11-30T12:54:53.159Z,8.48
2023-11-30T12:57:21.114Z,9.93
2023-11-30T12:59:47.881Z,9.25
2023-11-30T13:02:14.539Z,9.90
2023-11-30T13:04:42.107Z,10.07
2023-11-30T13:07:08.745Z,9.73
2023-11-30T13:09:36.436Z,9.73
2023-11-30T13:12:04.715Z,9.70
2023-11-30T13:14:32.234Z,9.52
2023-11-30T13:16:58.833Z,9.05
2023-11-30T13:19:25.924Z,10.82
2023-11-30T13:21:53.184Z,10.25
2023-11-30T13:24:20.491Z,10.48
2023-11-30T13:26:48.572Z,10.68
2023-11-30T13:29:15.214Z,10.52
2023-11-30T13:31:41.814Z,10.65
2023-11-30T13:34:08.535Z,10.55
2023-11-30T13:36:35.084Z,10.85
2023-11-30T13:39:01.797Z,11.20
2023-11-30T13:41:28.372Z,9.75
2023-11-30T13:43:55.162Z,10.43
2023-11-30T13:46:22.301Z,9.95
2023-11-30T13:48:49.260Z,10.80
2023-11-30T13:51:16.121Z,10.45
2023-11-30T13:53:42.836Z,10.90
2023-11-30T13:56:10.073Z,10.65
2023-11-30T13:58:36.627Z,10.63
2023-11-30T14:01:04.054Z,10.52
2023-11-30T14:03:30.933Z,10.82
2023-11-30T14:05:58.106Z,10.55
2023-11-30T14:08:27.586Z,11.23
2023-11-30T14:10:54.404Z,11.05
2023-11-30T14:13:21.031Z,9.88
2023-11-30T14:15:48.855Z,10.02
2023-11-30T14:18:15.874Z,10.40
2023-11-30T14:20:42.523Z,10.45
2023-11-30T14:23:09.201Z,9.48
2023-11-30T14:25:35.832Z,9.63
2023-11-30T14:28:07.698Z,10.27
2023-11-30T14:30:39.032Z,10.48
2023-11-30T14:33:05.694Z,10.18
2023-11-30T14:35:32.946Z,10.50
2023-11-30T14:38:00.119Z,10.43
2023-11-30T14:40:26.881Z,9.45
2023-11-30T14:42:53.678Z,10.98
2023-11-30T14:45:20.490Z,9.77
2023-11-30T14:47:48.170Z,9.85
2023-11-30T14:50:16.971Z,10.25
2023-11-30T14:55:13.913Z,8.52
2023-11-30T14:57:42.245Z,10.45
2023-11-30T15:00:13.696Z,9.88
2023-11-30T15:02:42.378Z,11.00
2023-11-30T15:05:15.371Z,9.60
2023-11-30T15:07:42.469Z,10.75
2023-11-30T15:10:12.193Z,18.20
2023-11-30T15:12:39.262Z,12.00
2023-11-30T15:15:13.903Z,10.90
2023-11-30T15:17:42.965Z,9.50
2023-11-30T15:20:11.682Z,10.10
2023-11-30T15:25:08.580Z,9.32
2023-11-30T15:27:36.034Z,9.93
2023-11-30T15:30:04.547Z,9.57
2023-11-30T15:32:31.467Z,10.40
2023-11-30T15:34:58.002Z,9.50
2023-11-30T15:37:24.841Z,10.32
2023-11-30T15:39:51.686Z,11.88
2023-11-30T15:42:18.295Z,10.02
2023-11-30T15:44:45.035Z,9.30
2023-11-30T15:47:12.629Z,10.13
2023-11-30T15:49:40.993Z,9.40
2023-11-30T15:52:07.617Z,10.63
2023-11-30T15:54:34.178Z,14.65
2023-11-30T15:57:00.772Z,10.60
2023-11-30T15:59:28.130Z,11.20
2023-11-30T16:01:54.760Z,10.00
2023-11-30T16:04:21.525Z,9.70
2023-11-30T16:06:48.336Z,10.60
2023-11-30T16:09:15.073Z,9.95
2023-11-30T16:11:41.677Z,9.38
2023-11-30T16:14:08.218Z,9.60
2023-11-30T16:16:34.996Z,9.68
2023-11-30T16:19:01.661Z,11.13
2023-11-30T16:21:28.867Z,11.07
2023-11-30T16:23:56.660Z,9.88
2023-11-30T16:26:25.958Z,10.70
2023-11-30T16:28:53.011Z,10.15
2023-11-30T16:31:19.713Z,10.10
2023-11-30T16:33:47.098Z,10.38
2023-11-30T16:36:13.676Z,10.63
2023-11-30T16:38:40.194Z,9.32
2023-11-30T16:41:07.695Z,9.55
2023-11-30T16:43:36.829Z,9.65
2023-11-30T16:46:05.170Z,9.27
2023-11-30T16:48:32.035Z,10.18
2023-11-30T16:50:59.608Z,9.57
2023-11-30T16:53:28.331Z,9.52
2023-11-30T16:55:56.852Z,9.40
2023-11-30T16:58:23.432Z,10.45
2023-11-30T17:00:50.280Z,9.80
2023-11-30T17:03:17.184Z,10.27
2023-11-30T17:05:43.915Z,9.18
2023-11-30T17:08:10.418Z,12.40
2023-11-30T17:10:36.992Z,9.80
2023-11-30T17:13:05.646Z,9.88
2023-11-30T17:15:33.077Z,9.93
2023-11-30T17:17:59.721Z,9.10
2023-11-30T17:20:26.253Z,9.60
2023-11-30T17:22:53.284Z,11.45
2023-11-30T17:25:20.972Z,15.48
2023-11-30T17:27:47.848Z,11.40
2023-11-30T17:30:15.750Z,9.73
2023-11-30T17:32:42.900Z,9.85
2023-11-30T17:35:09.838Z,9.60
2023-11-30T17:37:36.558Z,8.98
2023-11-30T17:40:03.482Z,9.63
2023-11-30T17:42:30.276Z,9.50
2023-11-30T17:44:56.912Z,10.38
2023-11-30T17:47:23.541Z,8.30
2023-11-30T17:49:50.073Z,9.23
2023-11-30T17:52:16.663Z,9.38
2023-11-30T17:54:43.667Z,9.43
2023-11-30T17:57:10.211Z,9.98
2023-11-30T17:59:36.768Z,9.63
2023-11-30T18:02:03.470Z,9.15
2023-11-30T18:04:30.047Z,9.05
2023-11-30T18:06:56.678Z,9.25
2023-11-30T18:09:26.704Z,11.57
2023-11-30T18:11:54.132Z,8.73
2023-11-30T18:14:20.609Z,22.02
2023-11-30T18:16:47.184Z,10.80
2023-11-30T18:19:13.830Z,9.60
2023-11-30T18:21:40.427Z,9.20
2023-11-30T18:24:07.104Z,9.05
2023-11-30T18:26:33.655Z,9.48
2023-11-30T18:29:00.158Z,10.68
2023-11-30T18:31:26.776Z,10.70
2023-11-30T18:33:53.405Z,11.95
2023-11-30T18:36:20.163Z,12.13
2023-11-30T18:38:50.860Z,9.68
2023-11-30T18:41:22.365Z,11.45
2023-11-30T18:43:50.077Z,10.48
2023-11-30T18:46:16.911Z,10.48
2023-11-30T18:48:44.184Z,11.20
2023-11-30T18:51:11.143Z,10.85
2023-11-30T18:53:37.712Z,11.02
2023-11-30T18:56:05.545Z,11.07
2023-11-30T18:58:32.331Z,10.57
2023-11-30T19:00:58.978Z,10.88
2023-11-30T19:03:25.647Z,11.75
2023-11-30T19:05:52.452Z,11.82
2023-11-30T19:08:18.956Z,13.15
2023-11-30T19:10:45.486Z,18.15
2023-11-30T19:13:12.112Z,13.38
2023-11-30T19:15:42.811Z,12.15
2023-11-30T19:18:09.838Z,13.75
2023-11-30T19:20:38.462Z,13.68
2023-11-30T19:23:05.021Z,11.32
2023-11-30T19:25:31.599Z,12.23
2023-11-30T19:27:58.246Z,13.95
2023-11-30T19:30:24.900Z,11.30
2023-11-30T19:32:52.243Z,11.02
2023-11-30T19:35:19.795Z,11.00
2023-11-30T19:37:46.524Z,10.23
2023-11-30T19:40:13.468Z,10.48
2023-11-30T19:42:40.136Z,10.90
2023-11-30T19:45:07.367Z,10.25
2023-11-30T19:47:34.767Z,9.82
2023-11-30T19:50:01.499Z,11.27
2023-11-30T19:52:28.019Z,9.93
2023-11-30T19:54:54.672Z,10.63
2023-11-30T19:57:21.344Z,10.18
2023-11-30T19:59:47.945Z,9.52
2023-11-30T20:02:14.834Z,8.65
2023-11-30T20:04:41.498Z,8.57
2023-11-30T20:07:08.080Z,9.20
2023-11-30T20:09:34.770Z,9.45
2023-11-30T20:12:01.329Z,14.27
2023-11-30T20:14:28.245Z,9.90
2023-11-30T20:16:54.938Z,10.57
2023-11-30T20:19:21.485Z,9.95
2023-11-30T20:21:48.119Z,9.02
2023-11-30T20:24:14.766Z,8.63
2023-11-30T20:26:42.782Z,9.80
2023-11-30T20:29:09.965Z,9.57
2023-11-30T20:31:36.516Z,11.32
2023-11-30T20:34:04.114Z,9.38
2023-11-30T20:36:30.864Z,10.73
2023-11-30T20:38:57.630Z,10.93
2023-11-30T20:41:25.418Z,10.50
2023-11-30T20:43:54.282Z,9.30
2023-11-30T20:51:18.438Z,8.75
2023-11-30T20:53:45.658Z,10.45
2023-11-30T20:56:12.379Z,22.13
2023-11-30T20:58:39.699Z,13.23
2023-11-30T21:01:06.870Z,10.95
2023-11-30T21:03:34.239Z,12.05
2023-11-30T21:06:02.126Z,10.30
2023-11-30T21:08:30.990Z,9.98
2023-11-30T21:10:57.517Z,10.38
2023-11-30T21:13:25.154Z,9.23
2023-11-30T21:15:52.267Z,8.35
2023-11-30T21:18:18.917Z,9.05
2023-11-30T21:20:45.504Z,6.35
2023-11-30T21:23:12.506Z,6.25
2023-11-30T21:25:39.919Z,7.32
2023-11-30T21:28:08.929Z,7.40
2023-11-30T21:30:35.805Z,6.57
2023-11-30T21:33:02.528Z,7.55
2023-11-30T21:35:29.417Z,8.20
2023-11-30T21:37:55.955Z,7.88
2023-11-30T21:40:22.510Z,8.50
2023-11-30T21:42:49.141Z,7.70
2023-11-30T21:45:15.870Z,8.48
2023-11-30T21:47:42.754Z,7.65
2023-11-30T21:50:21.701Z,7.78
2023-11-30T21:52:49.988Z,7.57
2023-11-30T21:55:18.596Z,7.65
2023-11-30T21:57:47.814Z,7.82
2023-11-30T22:00:15.938Z,6.50
2023-11-30T22:02:47.196Z,6.20
2023-11-30T22:05:24.131Z,6.72
2023-11-30T22:07:57.199Z,6.18
2023-11-30T22:10:23.895Z,6.38
2023-11-30T22:12:50.516Z,7.72
2023-11-30T22:15:17.076Z,7.32
2023-11-30T22:17:43.874Z,6.95
2023-11-30T22:20:11.251Z,7.35
2023-11-30T22:22:37.862Z,7.63
2023-11-30T22:25:04.698Z,7.95
2023-11-30T22:27:32.020Z,7.45
2023-11-30T22:29:58.607Z,7.85
2023-11-30T22:32:25.203Z,7.55
2023-11-30T22:34:51.735Z,7.40
2023-11-30T22:37:20.539Z,7.13
2023-11-30T22:42:13.878Z,7.03
2023-11-30T22:44:40.446Z,7.88
2023-11-30T22:47:07.024Z,7.40
2023-11-30T22:49:33.696Z,7.68
2023-11-30T22:52:00.458Z,7.45
2023-11-30T22:54:28.630Z,7.95
2023-11-30T22:56:55.401Z,9.10
2023-11-30T22:59:21.930Z,9.05
2023-11-30T23:01:48.703Z,8.65
2023-11-30T23:04:15.618Z,8.60
2023-11-30T23:06:42.374Z,9.48
2023-11-30T23:09:08.993Z,10.07
2023-11-30T23:11:35.473Z,8.88
2023-11-30T23:14:02.045Z,9.52
2023-11-30T23:16:28.768Z,10.90
2023-11-30T23:18:55.469Z,11.70
2023-11-30T23:21:22.101Z,10.90
2023-11-30T23:23:48.713Z,10.73
2023-11-30T23:26:15.632Z,10.07
2023-11-30T23:28:42.159Z,10.60
2023-11-30T23:31:08.861Z,11.65
2023-11-30T23:33:35.487Z,10.80
2023-11-30T23:36:02.128Z,11.07
2023-11-30T23:38:28.911Z,11.13
2023-11-30T23:40:55.433Z,10.55
2023-11-30T23:43:22.077Z,10.15
2023-11-30T23:45:49.256Z,10.02
2023-11-30T23:48:15.962Z,9.15
2023-11-30T23:50:42.487Z,9.95
2023-11-30T23:53:09.020Z,11.10
2023-11-30T23:55:35.583Z,10.55
2023-11-30T23:58:03.631Z,11.18
